createdAt,value
2018-06-25T00:01:09.535Z,100829.09
2018-06-25T00:03:37.710Z,100826.84
2018-06-25T00:06:05.880Z,100833.56
2018-06-25T00:08:34.047Z,100835.20
2018-06-25T00:11:02.256Z,100830.59
2018-06-25T00:13:30.427Z,100834.13
2018-06-25T00:15:58.603Z,100834.72
2018-06-25T00:18:26.767Z,100833.83
2018-06-25T00:20:54.958Z,100836.13
2018-06-25T00:23:23.136Z,100830.75
2018-06-25T00:25:51.311Z,100826.61
2018-06-25T00:28:19.474Z,100830.72
2018-06-25T00:30:47.650Z,100832.33
2018-06-25T00:33:15.818Z,100838.16
2018-06-25T00:35:43.994Z,100839.20
2018-06-25T00:38:12.175Z,100840.92
2018-06-25T00:40:40.343Z,100840.00
2018-06-25T00:43:08.522Z,100835.76
2018-06-25T00:45:36.700Z,100847.27
2018-06-25T00:48:04.930Z,100849.24
2018-06-25T00:50:33.099Z,100845.25
2018-06-25T00:53:01.267Z,100843.28
2018-06-25T00:55:29.432Z,100842.98
2018-06-25T00:57:57.601Z,100845.38
2018-06-25T01:00:25.787Z,100847.09
2018-06-25T01:02:53.958Z,100841.34
2018-06-25T01:05:22.126Z,100837.14
2018-06-25T01:07:50.306Z,100833.11
2018-06-25T01:10:18.466Z,100836.25
2018-06-25T01:12:46.643Z,100830.88
2018-06-25T01:15:14.815Z,100827.14
2018-06-25T01:17:42.991Z,100822.94
2018-06-25T01:20:11.154Z,100828.02
2018-06-25T01:22:39.314Z,100826.38
2018-06-25T01:25:07.491Z,100831.84
2018-06-25T01:27:35.638Z,100832.22
2018-06-25T01:30:03.835Z,100836.92
2018-06-25T01:32:32.003Z,100840.24
2018-06-25T01:35:00.160Z,100842.09
2018-06-25T01:37:28.334Z,100840.25
2018-06-25T01:39:56.494Z,100845.58
2018-06-25T01:42:24.658Z,100851.55
2018-06-25T01:44:52.835Z,100847.68
2018-06-25T01:47:20.998Z,100848.80
2018-06-25T01:49:49.159Z,100841.78
2018-06-25T01:52:17.326Z,100840.69
2018-06-25T01:54:45.495Z,100833.22
2018-06-25T01:57:13.666Z,100832.61
2018-06-25T01:59:41.835Z,100827.98
2018-06-25T02:02:10.008Z,100833.36
2018-06-25T02:04:38.175Z,100844.17
2018-06-25T02:07:06.371Z,100826.80
2018-06-25T02:09:34.559Z,100819.33
2018-06-25T02:12:02.739Z,100826.59
2018-06-25T02:14:30.910Z,100828.95
2018-06-25T02:16:59.078Z,100832.02
2018-06-25T02:19:27.257Z,100836.13
2018-06-25T02:21:55.486Z,100831.85
2018-06-25T02:24:23.663Z,100830.84
2018-06-25T02:26:51.832Z,100832.02
2018-06-25T02:29:19.994Z,100829.92
2018-06-25T02:31:48.168Z,100839.41
2018-06-25T02:34:16.339Z,100842.26
2018-06-25T02:36:44.524Z,100836.33
2018-06-25T02:39:12.695Z,100838.19
2018-06-25T02:41:40.950Z,100836.98
2018-06-25T02:44:09.272Z,100836.89
2018-06-25T02:46:37.864Z,100836.60
2018-06-25T02:49:06.047Z,100840.77
2018-06-25T02:51:34.307Z,100840.89
2018-06-25T02:54:02.503Z,100846.02
2018-06-25T02:56:30.703Z,100839.38
2018-06-25T02:58:58.871Z,100843.20
2018-06-25T03:01:27.063Z,100841.80
2018-06-25T03:03:55.222Z,100842.11
2018-06-25T03:06:23.399Z,100841.06
2018-06-25T03:08:51.559Z,100832.66
2018-06-25T03:11:19.731Z,100834.84
2018-06-25T03:13:47.915Z,100839.84
2018-06-25T03:16:16.092Z,100836.13
2018-06-25T03:18:44.259Z,100838.13
2018-06-25T03:21:12.502Z,100843.98
2018-06-25T03:23:40.683Z,100843.94
2018-06-25T03:26:08.854Z,100842.83
2018-06-25T03:28:37.018Z,100844.32
2018-06-25T03:31:05.201Z,100844.77
2018-06-25T03:33:33.376Z,100839.64
2018-06-25T03:36:01.707Z,100839.91
2018-06-25T03:38:29.941Z,100839.38
2018-06-25T03:40:58.069Z,100843.54
2018-06-25T03:43:26.252Z,100846.50
2018-06-25T03:45:54.421Z,100846.50
2018-06-25T03:48:22.583Z,100855.95
2018-06-25T03:50:50.766Z,100857.29
2018-06-25T03:53:18.951Z,100864.59
2018-06-25T03:55:47.119Z,100860.06
2018-06-25T03:58:15.289Z,100859.80
2018-06-25T04:00:43.468Z,100860.30
2018-06-25T04:03:11.622Z,100856.12
2018-06-25T04:05:39.815Z,100854.33
2018-06-25T04:08:07.987Z,100859.04
2018-06-25T04:10:36.170Z,100860.33
2018-06-25T04:13:04.354Z,100858.57
2018-06-25T04:15:32.527Z,100860.00
2018-06-25T04:18:00.707Z,100860.30
2018-06-25T04:20:28.886Z,100861.38
2018-06-25T04:22:57.059Z,100869.95
2018-06-25T04:25:25.230Z,100870.61
2018-06-25T04:27:53.395Z,100875.02
2018-06-25T04:30:21.559Z,100875.73
2018-06-25T04:32:49.750Z,100881.52
2018-06-25T04:35:17.956Z,100887.79
2018-06-25T04:37:46.118Z,100886.89
2018-06-25T04:40:14.627Z,100892.95
2018-06-25T04:42:42.759Z,100890.77
2018-06-25T04:45:11.090Z,100884.30
2018-06-25T04:47:39.299Z,100886.98
2018-06-25T04:50:07.481Z,100882.66
2018-06-25T04:52:35.677Z,100889.22
2018-06-25T04:55:03.879Z,100888.36
2018-06-25T04:57:32.051Z,100902.40
2018-06-25T05:00:00.381Z,100905.92
2018-06-25T05:02:28.560Z,100897.95
2018-06-25T05:04:56.752Z,100906.17
2018-06-25T05:07:24.959Z,100905.08
2018-06-25T05:09:53.118Z,100905.63
2018-06-25T05:12:21.286Z,100902.41
2018-06-25T05:14:49.540Z,100911.59
2018-06-25T05:17:17.711Z,100909.30
2018-06-25T05:19:45.887Z,100905.83
2018-06-25T05:22:14.064Z,100911.84
2018-06-25T05:24:42.243Z,100909.84
2018-06-25T05:27:10.419Z,100908.91
2018-06-25T05:29:38.587Z,100922.52
2018-06-25T05:32:06.767Z,100918.89
2018-06-25T05:34:35.022Z,100920.92
2018-06-25T05:37:03.219Z,100924.25
2018-06-25T05:39:31.384Z,100929.17
2018-06-25T05:41:59.557Z,100933.05
2018-06-25T05:44:27.787Z,100931.67
2018-06-25T05:46:55.978Z,100935.03
2018-06-25T05:49:24.150Z,100930.70
2018-06-25T05:51:52.342Z,100937.18
2018-06-25T05:54:20.519Z,100934.13
2018-06-25T05:56:48.703Z,100939.14
2018-06-25T05:59:16.864Z,100934.67
2018-06-25T06:01:45.043Z,100938.91
2018-06-25T06:04:13.200Z,100943.09
2018-06-25T06:06:41.368Z,100942.64
2018-06-25T06:09:10.150Z,100940.03
2018-06-25T06:11:38.372Z,100942.88
2018-06-25T06:14:06.536Z,100951.02
2018-06-25T06:16:34.707Z,100948.45
2018-06-25T06:19:02.880Z,100951.82
2018-06-25T06:21:31.049Z,100956.53
2018-06-25T06:23:59.203Z,100967.05
2018-06-25T06:26:27.407Z,100971.08
2018-06-25T06:28:55.547Z,100966.14
2018-06-25T06:31:23.714Z,100972.14
2018-06-25T06:33:51.882Z,100969.16
2018-06-25T06:36:20.051Z,100967.44
2018-06-25T06:38:48.235Z,100975.36
2018-06-25T06:41:17.262Z,100975.56
2018-06-25T06:43:45.404Z,100972.30
2018-06-25T06:46:13.575Z,100978.27
2018-06-25T06:48:41.731Z,100978.78
2018-06-25T06:51:09.903Z,100985.06
2018-06-25T06:53:38.075Z,100984.16
2018-06-25T06:56:06.258Z,100989.14
2018-06-25T06:58:34.447Z,100991.70
2018-06-25T07:01:02.626Z,100992.56
2018-06-25T07:03:30.787Z,100990.53
2018-06-25T07:05:58.961Z,100993.30
2018-06-25T07:08:27.118Z,100999.55
2018-06-25T07:10:55.299Z,100999.34
2018-06-25T07:13:23.478Z,101004.31
2018-06-25T07:15:51.655Z,100998.71
2018-06-25T07:18:19.990Z,100998.71
2018-06-25T07:20:48.244Z,101001.97
2018-06-25T07:23:16.358Z,100998.52
2018-06-25T07:25:44.543Z,100995.94
2018-06-25T07:28:12.713Z,100992.55
2018-06-25T07:30:40.887Z,100996.03
2018-06-25T07:33:09.058Z,100997.14
2018-06-25T07:35:37.243Z,100998.64
2018-06-25T07:38:05.818Z,101001.72
2018-06-25T07:40:34.042Z,100994.23
2018-06-25T07:43:02.212Z,100998.42
2018-06-25T07:45:30.419Z,101005.77
2018-06-25T07:47:58.644Z,101005.77
2018-06-25T07:50:26.806Z,100998.52
2018-06-25T07:52:54.972Z,101010.91
2018-06-25T07:55:23.147Z,101007.87
2018-06-25T07:57:51.331Z,101015.27
2018-06-25T08:00:19.498Z,101013.28
2018-06-25T08:02:47.662Z,101013.60
2018-06-25T08:05:15.843Z,101012.95
2018-06-25T08:07:44.003Z,101014.80
2018-06-25T08:10:12.194Z,101018.92
2018-06-25T08:12:40.397Z,101024.99
2018-06-25T08:15:08.540Z,101019.97
2018-06-25T08:17:37.819Z,101023.07
2018-06-25T08:20:05.998Z,101024.71
2018-06-25T08:22:34.203Z,101024.84
2018-06-25T08:25:02.367Z,101028.09
2018-06-25T08:27:30.556Z,101026.82
2018-06-25T08:29:58.771Z,101032.72
2018-06-25T08:32:26.902Z,101034.90
2018-06-25T08:34:55.070Z,101034.14
2018-06-25T08:37:23.261Z,101034.10
2018-06-25T08:39:51.426Z,101033.81
2018-06-25T08:42:19.598Z,101040.47
2018-06-25T08:44:47.767Z,101039.31
2018-06-25T08:47:15.935Z,101040.37
2018-06-25T08:49:44.103Z,101043.09
2018-06-25T08:52:12.279Z,101048.82
2018-06-25T08:54:40.450Z,101047.32
2018-06-25T08:57:08.622Z,101048.08
2018-06-25T08:59:36.790Z,101052.12
2018-06-25T09:02:04.970Z,101053.55
2018-06-25T09:04:33.145Z,101045.49
2018-06-25T09:07:01.319Z,101046.92
2018-06-25T09:09:29.523Z,101053.55
2018-06-25T09:11:57.654Z,101052.06
2018-06-25T09:14:25.819Z,101050.50
2018-06-25T09:16:53.995Z,101051.86
2018-06-25T09:19:22.155Z,101053.87
2018-06-25T09:21:50.340Z,101055.84
2018-06-25T09:24:18.494Z,101054.83
2018-06-25T09:26:46.662Z,101060.80
2018-06-25T09:29:14.826Z,101060.21
2018-06-25T09:31:43.026Z,101063.67
2018-06-25T09:34:16.504Z,101062.83
2018-06-25T09:36:44.678Z,101066.77
2018-06-25T09:39:13.274Z,101066.38
2018-06-25T09:41:41.659Z,101070.00
2018-06-25T09:44:10.747Z,101058.58
2018-06-25T09:46:38.930Z,101058.20
2018-06-25T09:49:07.201Z,101069.20
2018-06-25T09:51:35.375Z,101067.46
2018-06-25T09:54:03.536Z,101069.84
2018-06-25T09:56:31.702Z,101068.16
2018-06-25T09:58:59.868Z,101068.81
2018-06-25T10:01:28.038Z,101067.51
2018-06-25T10:03:56.205Z,101062.90
2018-06-25T10:06:24.368Z,101067.70
2018-06-25T10:08:52.559Z,101067.16
2018-06-25T10:11:20.738Z,101067.13
2018-06-25T10:13:48.945Z,101067.80
2018-06-25T10:16:17.113Z,101067.93
2018-06-25T10:18:45.279Z,101066.73
2018-06-25T10:21:13.571Z,101068.37
2018-06-25T10:23:41.719Z,101064.44
2018-06-25T10:26:09.898Z,101062.44
2018-06-25T10:28:38.498Z,101063.98
2018-06-25T10:31:07.099Z,101063.72
2018-06-25T10:33:35.288Z,101062.59
2018-06-25T10:36:03.514Z,101061.23
2018-06-25T10:38:31.675Z,101066.56
2018-06-25T10:40:59.987Z,101065.94
2018-06-25T10:43:28.159Z,101065.15
2018-06-25T10:45:56.335Z,101069.34
2018-06-25T10:48:24.534Z,101074.70
2018-06-25T10:50:52.999Z,101077.75
2018-06-25T10:53:21.171Z,101082.02
2018-06-25T10:55:49.362Z,101082.47
2018-06-25T10:58:17.515Z,101079.39
2018-06-25T11:00:45.686Z,101075.42
2018-06-25T11:03:13.854Z,101073.04
2018-06-25T11:05:42.018Z,101073.56
2018-06-25T11:08:10.182Z,101074.67
2018-06-25T11:10:38.382Z,101075.31
2018-06-25T11:13:06.692Z,101075.48
2018-06-25T11:15:34.799Z,101069.63
2018-06-25T11:18:02.970Z,101078.91
2018-06-25T11:20:31.147Z,101077.48
2018-06-25T11:22:59.302Z,101070.05
2018-06-25T11:25:27.481Z,101070.66
2018-06-25T11:27:55.655Z,101072.89
2018-06-25T11:30:23.835Z,101078.82
2018-06-25T11:32:52.005Z,101079.70
2018-06-25T11:35:20.330Z,101076.42
2018-06-25T11:37:48.488Z,101076.69
2018-06-25T11:40:16.654Z,101076.53
2018-06-25T11:42:44.826Z,101078.22
2018-06-25T11:45:13.023Z,101085.61
2018-06-25T11:47:41.197Z,101083.55
2018-06-25T11:50:09.375Z,101086.23
2018-06-25T11:52:37.572Z,101085.44
2018-06-25T11:55:05.871Z,101086.16
2018-06-25T11:57:34.043Z,101089.78
2018-06-25T12:00:02.243Z,101083.12
2018-06-25T12:02:30.496Z,101087.92
2018-06-25T12:04:58.555Z,101084.42
2018-06-25T12:07:26.735Z,101092.27
2018-06-25T12:09:54.898Z,101093.30
2018-06-25T12:12:23.177Z,101082.23
2018-06-25T12:14:51.290Z,101084.70
2018-06-25T12:17:19.455Z,101085.44
2018-06-25T12:19:47.668Z,101081.42
2018-06-25T12:22:15.771Z,101075.14
2018-06-25T12:24:43.930Z,101078.03
2018-06-25T12:27:12.130Z,101076.45
2018-06-25T12:29:40.283Z,101076.50
2018-06-25T12:32:08.561Z,101074.66
2018-06-25T12:34:36.622Z,101074.06
2018-06-25T12:37:04.835Z,101074.86
2018-06-25T12:39:32.999Z,101074.44
2018-06-25T12:42:01.163Z,101083.02
2018-06-25T12:44:29.324Z,101075.14
2018-06-25T12:46:57.502Z,101082.33
2018-06-25T12:49:25.667Z,101078.92
2018-06-25T12:51:53.843Z,101078.67
2018-06-25T12:54:22.019Z,101079.28
2018-06-25T12:56:50.202Z,101074.26
2018-06-25T12:59:18.380Z,101073.18
2018-06-25T13:01:46.555Z,101073.14
2018-06-25T13:04:14.719Z,101084.30
2018-06-25T13:06:42.886Z,101085.02
2018-06-25T13:09:12.883Z,101084.55
2018-06-25T13:11:41.093Z,101092.04
2018-06-25T13:14:09.542Z,101085.21
2018-06-25T13:16:37.727Z,101086.56
2018-06-25T13:19:06.099Z,101089.98
2018-06-25T13:21:34.267Z,101086.24
2018-06-25T13:24:02.467Z,101084.72
2018-06-25T13:26:30.651Z,101085.42
2018-06-25T13:28:58.822Z,101078.81
2018-06-25T13:31:27.007Z,101080.21
2018-06-25T13:33:55.179Z,101085.50
2018-06-25T13:36:23.356Z,101078.56
2018-06-25T13:38:51.519Z,101078.83
2018-06-25T13:41:19.728Z,101076.16
2018-06-25T13:43:47.866Z,101073.67
2018-06-25T13:46:16.121Z,101084.05
2018-06-25T13:48:44.307Z,101075.14
2018-06-25T13:51:12.504Z,101072.20
2018-06-25T13:53:40.811Z,101062.00
2018-06-25T13:56:09.089Z,101063.78
2018-06-25T13:58:37.439Z,101066.03
2018-06-25T14:01:05.692Z,101064.14
2018-06-25T14:03:33.891Z,101065.22
2018-06-25T14:06:02.071Z,101059.77
2018-06-25T14:08:30.259Z,101058.39
2018-06-25T14:10:58.454Z,101054.04
2018-06-25T14:13:26.943Z,101050.52
2018-06-25T14:15:55.167Z,101053.76
2018-06-25T14:18:23.975Z,101049.42
2018-06-25T14:20:52.617Z,101046.70
2018-06-25T14:23:21.281Z,101045.31
2018-06-25T14:25:54.644Z,101046.94
2018-06-25T14:28:27.963Z,101050.76
2018-06-25T14:31:01.498Z,101054.78
2018-06-25T14:34:34.480Z,101040.35
2018-06-25T14:37:02.719Z,101042.07
2018-06-25T14:39:30.927Z,101051.34
2018-06-25T14:41:59.105Z,101041.26
2018-06-25T14:44:27.275Z,101036.91
2018-06-25T14:46:55.475Z,101039.79
2018-06-25T14:49:23.657Z,101034.39
2018-06-25T14:51:51.847Z,101040.08
2018-06-25T14:54:20.036Z,101036.58
2018-06-25T14:56:48.217Z,101037.45
2018-06-25T14:59:16.413Z,101038.02
2018-06-25T15:01:44.603Z,101042.07
2018-06-25T15:04:12.787Z,101037.69
2018-06-25T15:06:40.984Z,101037.39
2018-06-25T15:09:10.879Z,101037.36
2018-06-25T15:11:39.137Z,101027.53
2018-06-25T15:14:07.615Z,101022.66
2018-06-25T15:16:35.947Z,101023.56
2018-06-25T15:19:04.375Z,101023.84
2018-06-25T15:21:32.555Z,101024.66
2018-06-25T15:24:00.738Z,101018.95
2018-06-25T15:26:28.903Z,101024.41
2018-06-25T15:28:57.067Z,101014.58
2018-06-25T15:31:25.242Z,101014.05
2018-06-25T15:33:53.414Z,101010.52
2018-06-25T15:36:21.591Z,101001.53
2018-06-25T15:38:49.791Z,101010.78
2018-06-25T15:41:17.978Z,101001.84
2018-06-25T15:43:46.163Z,101006.18
2018-06-25T15:46:14.338Z,100997.72
2018-06-25T15:48:42.519Z,101000.97
2018-06-25T15:51:10.690Z,101004.50
2018-06-25T15:53:38.866Z,101004.55
2018-06-25T15:56:07.035Z,101012.68
2018-06-25T15:58:35.211Z,101010.76
2018-06-25T16:01:03.399Z,101003.90
2018-06-25T16:03:31.564Z,101000.03
2018-06-25T16:05:59.722Z,101011.16
2018-06-25T16:08:27.911Z,101009.80
2018-06-25T16:10:56.088Z,101002.48
2018-06-25T16:13:24.274Z,101000.76
2018-06-25T16:15:52.535Z,100991.00
2018-06-25T16:18:20.719Z,100989.40
2018-06-25T16:20:48.911Z,100991.00
2018-06-25T16:23:22.470Z,100991.52
2018-06-25T16:25:50.648Z,100987.83
2018-06-25T16:28:18.840Z,100986.47
2018-06-25T16:30:47.019Z,100985.13
2018-06-25T16:33:15.191Z,100991.41
2018-06-25T16:35:43.382Z,100994.66
2018-06-25T16:38:11.638Z,100995.22
2018-06-25T16:40:39.878Z,100995.94
2018-06-25T16:43:08.235Z,101005.21
2018-06-25T16:45:36.411Z,100997.27
2018-06-25T16:48:04.787Z,100999.52
2018-06-25T16:50:32.967Z,101003.63
2018-06-25T16:53:01.135Z,101002.59
2018-06-25T16:55:29.302Z,100990.12
2018-06-25T16:57:57.478Z,100992.26
2018-06-25T17:00:25.675Z,100994.70
2018-06-25T17:02:53.938Z,100986.55
2018-06-25T17:05:22.150Z,100988.50
2018-06-25T17:07:50.490Z,100989.81
2018-06-25T17:10:18.714Z,60321.67
2018-06-25T17:12:46.898Z,60305.41
2018-06-25T17:15:15.091Z,60319.64
2018-06-25T17:17:43.291Z,60309.48
2018-06-25T17:20:11.464Z,60302.37
2018-06-25T17:22:39.662Z,60296.27
2018-06-25T17:25:07.878Z,60310.50
2018-06-25T17:27:36.063Z,60310.50
2018-06-25T17:30:04.742Z,60301.35
2018-06-25T17:32:32.953Z,60311.51
2018-06-25T17:35:01.123Z,60305.41
2018-06-25T17:37:29.299Z,60295.25
2018-06-25T17:39:57.490Z,60311.51
2018-06-25T17:42:25.692Z,60318.62
2018-06-25T17:44:53.894Z,60294.24
2018-06-25T17:47:22.085Z,60324.72
2018-06-25T17:49:50.254Z,60315.57
2018-06-25T17:52:18.443Z,60330.82
2018-06-25T17:54:46.624Z,60318.62
2018-06-25T17:57:15.080Z,60335.90
2018-06-25T17:59:43.308Z,60312.53
2018-06-25T18:02:11.505Z,60326.75
2018-06-25T18:04:39.671Z,60307.45
2018-06-25T18:07:07.875Z,60318.62
2018-06-25T18:09:36.284Z,60303.38
2018-06-25T18:12:04.606Z,60322.69
2018-06-25T18:14:32.774Z,60317.61
2018-06-25T18:17:00.963Z,60327.77
2018-06-25T18:19:29.142Z,60316.59
2018-06-25T18:21:57.331Z,60325.74
2018-06-25T18:24:25.506Z,60329.80
2018-06-25T18:26:53.686Z,60308.46
2018-06-25T18:29:21.842Z,60310.50
2018-06-25T18:31:50.091Z,60316.59
2018-06-25T18:34:18.263Z,60336.91
2018-06-25T18:36:46.447Z,60303.38
2018-06-25T18:39:14.710Z,60313.54
2018-06-25T18:41:43.776Z,60316.59
2018-06-25T18:44:11.994Z,60320.66
2018-06-25T18:46:40.178Z,60326.75
2018-06-25T18:49:08.492Z,60304.40
2018-06-25T18:51:36.740Z,60349.11
2018-06-25T18:54:05.087Z,60299.32
2018-06-25T18:56:33.283Z,60318.62
2018-06-25T18:59:01.699Z,60313.54
2018-06-25T19:01:29.888Z,60321.67
2018-06-25T19:03:58.069Z,60315.57
2018-06-25T19:06:26.642Z,60321.67
2018-06-25T19:08:54.886Z,60321.67
2018-06-25T19:11:23.618Z,60316.59
2018-06-25T19:13:51.791Z,60331.84
2018-06-25T19:16:19.984Z,60343.01
2018-06-25T19:18:48.210Z,60343.01
2018-06-25T19:21:16.418Z,60313.54
2018-06-25T19:23:44.708Z,60326.75
2018-06-25T19:26:12.800Z,60317.61
2018-06-25T19:28:41.224Z,60316.59
2018-06-25T19:31:09.363Z,60351.14
2018-06-25T19:33:37.604Z,60350.12
2018-06-25T19:36:05.879Z,60324.72
2018-06-25T19:38:34.072Z,60317.61
2018-06-25T19:41:02.239Z,60328.79
2018-06-25T19:43:30.487Z,60345.04
2018-06-25T19:45:58.679Z,60356.22
2018-06-25T19:48:26.848Z,60356.22
2018-06-25T19:50:55.013Z,60349.11
2018-06-25T19:53:23.190Z,60364.35
2018-06-25T19:55:51.357Z,60357.24
2018-06-25T19:58:19.654Z,60365.37
2018-06-25T20:00:47.815Z,60380.61
2018-06-25T20:03:15.979Z,60358.25
2018-06-25T20:05:44.173Z,60353.18
2018-06-25T20:08:12.357Z,60365.37
2018-06-25T20:10:40.553Z,60342.00
2018-06-25T20:13:08.699Z,60368.42
2018-06-25T20:15:36.904Z,60350.12
2018-06-25T20:18:05.116Z,60350.12
2018-06-25T20:20:33.306Z,60362.32
2018-06-25T20:23:01.467Z,60380.61
2018-06-25T20:25:29.643Z,60369.43
2018-06-25T20:27:57.955Z,60354.19
2018-06-25T20:30:26.127Z,60377.56
2018-06-25T20:32:54.319Z,60374.52
2018-06-25T20:35:22.479Z,60357.24
2018-06-25T20:37:50.651Z,60369.43
2018-06-25T20:40:18.818Z,60393.82
2018-06-25T20:42:46.987Z,60356.22
2018-06-25T20:45:15.155Z,60372.48
2018-06-25T20:47:43.356Z,60382.64
2018-06-25T20:50:11.527Z,60367.40
2018-06-25T20:52:39.703Z,60377.56
2018-06-25T20:55:07.856Z,60383.66
2018-06-25T20:57:36.018Z,60382.64
2018-06-25T21:00:04.335Z,60356.22
2018-06-25T21:02:32.550Z,60388.74
2018-06-25T21:05:00.718Z,60390.77
2018-06-25T21:07:28.910Z,60363.34
2018-06-25T21:09:57.094Z,60385.69
2018-06-25T21:12:25.267Z,60387.72
2018-06-25T21:14:53.435Z,60378.58
2018-06-25T21:17:21.616Z,60381.63
2018-06-25T21:19:49.782Z,60392.80
2018-06-25T21:22:17.962Z,60381.63
2018-06-25T21:24:46.118Z,60375.53
2018-06-25T21:27:14.307Z,60380.61
2018-06-25T21:29:42.492Z,60388.74
2018-06-25T21:32:10.671Z,60401.95
2018-06-25T21:34:39.122Z,60389.76
2018-06-25T21:37:07.311Z,60385.69
2018-06-25T21:39:35.467Z,60364.35
2018-06-25T21:42:03.663Z,60386.71
2018-06-25T21:44:31.851Z,60387.72
2018-06-25T21:47:00.044Z,60402.97
2018-06-25T21:49:28.227Z,60401.95
2018-06-25T21:51:56.401Z,60381.63
2018-06-25T21:54:24.575Z,60389.76
2018-06-25T21:56:52.785Z,60387.72
2018-06-25T21:59:20.963Z,60384.68
2018-06-25T22:01:54.275Z,60379.59
2018-06-25T22:04:22.476Z,60380.61
2018-06-25T22:06:50.827Z,60395.86
2018-06-25T22:09:19.096Z,60368.42
2018-06-25T22:11:47.891Z,60379.59
2018-06-25T22:14:16.074Z,60392.80
2018-06-25T22:16:44.259Z,60435.48
2018-06-25T22:19:12.434Z,60409.07
2018-06-25T22:21:40.831Z,60384.68
2018-06-25T22:24:09.014Z,60400.93
2018-06-25T22:26:37.211Z,60385.69
2018-06-25T22:29:05.827Z,60386.71
2018-06-25T22:31:34.155Z,60385.69
2018-06-25T22:34:02.327Z,60379.59
2018-06-25T22:36:30.514Z,60399.92
2018-06-25T22:38:58.703Z,60391.79
2018-06-25T22:41:26.891Z,60433.45
2018-06-25T22:44:04.411Z,60397.89
2018-06-25T22:46:32.595Z,60395.86
2018-06-25T22:49:00.770Z,60422.27
2018-06-25T22:51:28.944Z,60422.27
2018-06-25T22:53:57.114Z,60410.08
2018-06-25T22:56:25.292Z,60426.34
2018-06-25T22:58:53.634Z,60394.84
2018-06-25T23:01:21.840Z,60421.26
2018-06-25T23:03:50.091Z,60395.86
2018-06-25T23:06:18.271Z,60414.14
2018-06-25T23:08:46.756Z,60423.29
2018-06-25T23:11:15.127Z,60429.39
2018-06-25T23:13:43.319Z,60415.16
2018-06-25T23:16:11.498Z,60412.11
2018-06-25T23:18:39.687Z,60411.10
2018-06-25T23:21:08.030Z,60421.26
2018-06-25T23:23:36.223Z,60441.58
2018-06-25T23:26:04.399Z,60415.16
2018-06-25T23:28:32.578Z,60433.45
2018-06-25T23:31:00.751Z,60428.37
2018-06-25T23:33:28.946Z,60426.34
2018-06-25T23:35:57.274Z,60425.32
2018-06-25T23:38:25.455Z,60425.32
2018-06-25T23:40:53.736Z,60427.36
2018-06-25T23:43:22.110Z,60434.47
2018-06-25T23:45:50.488Z,60438.53
2018-06-25T23:48:18.771Z,60428.37
2018-06-25T23:50:46.969Z,60420.24
2018-06-25T23:53:15.150Z,60453.78
2018-06-25T23:55:43.491Z,60432.44
2018-06-25T23:58:11.980Z,60418.21
